sensor_id;sensor_type;location;lat;lon;timestamp;P1;durP1;ratioP1;P2;durP2;ratioP2
55409;SDS011;41279;43.546;16.426;2023-03-17T00:00:16;5.30;;;4.80;;
55409;SDS011;41279;43.546;16.426;2023-03-17T00:02:44;5.35;;;4.57;;
55409;SDS011;41279;43.546;16.426;2023-03-17T00:05:32;5.57;;;4.78;;
55409;SDS011;41279;43.546;16.426;2023-03-17T00:08:04;6.07;;;4.70;;
55409;SDS011;41279;43.546;16.426;2023-03-17T00:10:35;4.93;;;4.32;;
55409;SDS011;41279;43.546;16.426;2023-03-17T00:13:01;4.78;;;4.28;;
55409;SDS011;41279;43.546;16.426;2023-03-17T00:15:27;5.28;;;4.68;;
55409;SDS011;41279;43.546;16.426;2023-03-17T00:17:54;5.13;;;4.63;;
55409;SDS011;41279;43.546;16.426;2023-03-17T00:22:52;5.40;;;4.70;;
55409;SDS011;41279;43.546;16.426;2023-03-17T00:25:20;5.22;;;4.72;;
55409;SDS011;41279;43.546;16.426;2023-03-17T00:27:48;5.53;;;5.03;;
55409;SDS011;41279;43.546;16.426;2023-03-17T00:30:14;5.93;;;4.47;;
55409;SDS011;41279;43.546;16.426;2023-03-17T00:32:40;4.70;;;4.30;;
55409;SDS011;41279;43.546;16.426;2023-03-17T00:35:16;5.85;;;4.50;;
55409;SDS011;41279;43.546;16.426;2023-03-17T00:37:44;5.20;;;4.65;;
55409;SDS011;41279;43.546;16.426;2023-03-17T00:40:21;5.25;;;4.75;;
55409;SDS011;41279;43.546;16.426;2023-03-17T00:42:49;4.50;;;4.10;;
55409;SDS011;41279;43.546;16.426;2023-03-17T00:45:16;5.20;;;4.20;;
55409;SDS011;41279;43.546;16.426;2023-03-17T00:47:43;5.07;;;4.40;;
55409;SDS011;41279;43.546;16.426;2023-03-17T00:50:13;5.10;;;4.60;;
55409;SDS011;41279;43.546;16.426;2023-03-17T00:52:41;4.90;;;4.40;;
55409;SDS011;41279;43.546;16.426;2023-03-17T00:55:08;5.03;;;4.53;;
55409;SDS011;41279;43.546;16.426;2023-03-17T00:57:35;5.25;;;4.50;;
55409;SDS011;41279;43.546;16.426;2023-03-17T01:00:02;6.55;;;4.43;;
55409;SDS011;41279;43.546;16.426;2023-03-17T01:02:28;4.85;;;4.20;;
55409;SDS011;41279;43.546;16.426;2023-03-17T01:04:55;6.20;;;4.60;;
55409;SDS011;41279;43.546;16.426;2023-03-17T01:07:21;5.70;;;4.53;;
55409;SDS011;41279;43.546;16.426;2023-03-17T01:09:48;4.97;;;4.45;;
55409;SDS011;41279;43.546;16.426;2023-03-17T01:12:14;4.80;;;4.30;;
55409;SDS011;41279;43.546;16.426;2023-03-17T01:14:40;5.95;;;4.60;;
55409;SDS011;41279;43.546;16.426;2023-03-17T01:17:13;4.32;;;3.92;;
55409;SDS011;41279;43.546;16.426;2023-03-17T01:19:40;5.28;;;4.43;;
55409;SDS011;41279;43.546;16.426;2023-03-17T01:22:07;5.30;;;4.50;;
55409;SDS011;41279;43.546;16.426;2023-03-17T01:24:33;5.90;;;4.53;;
55409;SDS011;41279;43.546;16.426;2023-03-17T01:27:05;5.25;;;4.75;;
55409;SDS011;41279;43.546;16.426;2023-03-17T01:29:31;4.70;;;4.30;;
55409;SDS011;41279;43.546;16.426;2023-03-17T01:31:57;5.95;;;4.50;;
55409;SDS011;41279;43.546;16.426;2023-03-17T01:34:23;4.90;;;4.40;;
55409;SDS011;41279;43.546;16.426;2023-03-17T01:36:49;6.75;;;4.85;;
55409;SDS011;41279;43.546;16.426;2023-03-17T01:39:15;5.32;;;4.40;;
55409;SDS011;41279;43.546;16.426;2023-03-17T01:41:40;5.32;;;4.57;;
55409;SDS011;41279;43.546;16.426;2023-03-17T01:44:06;5.82;;;4.38;;
55409;SDS011;41279;43.546;16.426;2023-03-17T01:46:37;5.07;;;4.35;;
55409;SDS011;41279;43.546;16.426;2023-03-17T01:57:56;4.55;;;4.15;;
55409;SDS011;41279;43.546;16.426;2023-03-17T02:00:10;5.40;;;4.32;;
55409;SDS011;41279;43.546;16.426;2023-03-17T02:02:37;4.90;;;4.35;;
55409;SDS011;41279;43.546;16.426;2023-03-17T02:05:04;5.10;;;4.35;;
55409;SDS011;41279;43.546;16.426;2023-03-17T02:07:33;4.82;;;4.38;;
55409;SDS011;41279;43.546;16.426;2023-03-17T02:09:58;5.05;;;4.32;;
55409;SDS011;41279;43.546;16.426;2023-03-17T02:12:25;5.78;;;4.53;;
55409;SDS011;41279;43.546;16.426;2023-03-17T02:14:53;5.55;;;4.40;;
55409;SDS011;41279;43.546;16.426;2023-03-17T02:17:19;5.05;;;4.50;;
55409;SDS011;41279;43.546;16.426;2023-03-17T02:19:47;5.40;;;4.78;;
55409;SDS011;41279;43.546;16.426;2023-03-17T02:22:13;5.65;;;4.88;;
55409;SDS011;41279;43.546;16.426;2023-03-17T02:24:42;5.07;;;4.57;;
55409;SDS011;41279;43.546;16.426;2023-03-17T02:27:30;5.43;;;4.28;;
55409;SDS011;41279;43.546;16.426;2023-03-17T02:29:59;5.93;;;4.80;;
55409;SDS011;41279;43.546;16.426;2023-03-17T02:32:25;5.53;;;4.70;;
55409;SDS011;41279;43.546;16.426;2023-03-17T02:34:51;6.30;;;4.85;;
55409;SDS011;41279;43.546;16.426;2023-03-17T02:37:17;7.07;;;5.10;;
55409;SDS011;41279;43.546;16.426;2023-03-17T02:39:44;7.32;;;5.22;;
55409;SDS011;41279;43.546;16.426;2023-03-17T02:42:10;5.60;;;5.10;;
55409;SDS011;41279;43.546;16.426;2023-03-17T02:44:36;5.50;;;5.00;;
55409;SDS011;41279;43.546;16.426;2023-03-17T02:47:03;5.55;;;5.05;;
55409;SDS011;41279;43.546;16.426;2023-03-17T02:49:29;6.88;;;5.00;;
55409;SDS011;41279;43.546;16.426;2023-03-17T02:51:55;7.80;;;4.85;;
55409;SDS011;41279;43.546;16.426;2023-03-17T02:54:21;5.20;;;4.70;;
55409;SDS011;41279;43.546;16.426;2023-03-17T02:56:46;7.18;;;4.60;;
55409;SDS011;41279;43.546;16.426;2023-03-17T02:59:12;6.22;;;4.75;;
55409;SDS011;41279;43.546;16.426;2023-03-17T03:01:37;5.10;;;4.57;;
55409;SDS011;41279;43.546;16.426;2023-03-17T03:04:03;4.70;;;4.20;;
55409;SDS011;41279;43.546;16.426;2023-03-17T03:06:31;5.00;;;4.50;;
55409;SDS011;41279;43.546;16.426;2023-03-17T03:08:56;5.38;;;4.18;;
55409;SDS011;41279;43.546;16.426;2023-03-17T03:11:22;5.50;;;4.35;;
55409;SDS011;41279;43.546;16.426;2023-03-17T03:13:47;5.05;;;4.50;;
55409;SDS011;41279;43.546;16.426;2023-03-17T03:16:14;5.03;;;4.53;;
55409;SDS011;41279;43.546;16.426;2023-03-17T03:18:40;5.85;;;4.45;;
55409;SDS011;41279;43.546;16.426;2023-03-17T03:21:06;5.32;;;4.30;;
55409;SDS011;41279;43.546;16.426;2023-03-17T03:23:33;4.72;;;4.32;;
55409;SDS011;41279;43.546;16.426;2023-03-17T03:25:59;6.15;;;4.30;;
55409;SDS011;41279;43.546;16.426;2023-03-17T03:28:25;4.80;;;4.30;;
55409;SDS011;41279;43.546;16.426;2023-03-17T03:30:50;5.45;;;4.40;;
55409;SDS011;41279;43.546;16.426;2023-03-17T03:33:16;5.57;;;4.20;;
55409;SDS011;41279;43.546;16.426;2023-03-17T03:35:42;4.55;;;4.15;;
55409;SDS011;41279;43.546;16.426;2023-03-17T03:38:08;5.90;;;4.43;;
55409;SDS011;41279;43.546;16.426;2023-03-17T03:40:35;5.43;;;4.50;;
55409;SDS011;41279;43.546;16.426;2023-03-17T03:43:01;4.72;;;4.18;;
55409;SDS011;41279;43.546;16.426;2023-03-17T03:45:26;7.60;;;4.60;;
55409;SDS011;41279;43.546;16.426;2023-03-17T03:47:59;7.10;;;4.72;;
55409;SDS011;41279;43.546;16.426;2023-03-17T03:50:25;6.63;;;4.53;;
55409;SDS011;41279;43.546;16.426;2023-03-17T03:52:50;5.35;;;4.60;;
55409;SDS011;41279;43.546;16.426;2023-03-17T03:55:16;5.10;;;4.60;;
55409;SDS011;41279;43.546;16.426;2023-03-17T03:57:41;5.50;;;4.53;;
55409;SDS011;41279;43.546;16.426;2023-03-17T04:00:07;6.53;;;4.90;;
55409;SDS011;41279;43.546;16.426;2023-03-17T04:02:33;5.95;;;4.60;;
55409;SDS011;41279;43.546;16.426;2023-03-17T04:04:59;5.03;;;4.53;;
55409;SDS011;41279;43.546;16.426;2023-03-17T04:07:25;6.57;;;4.90;;
55409;SDS011;41279;43.546;16.426;2023-03-17T04:09:51;5.10;;;4.60;;
55409;SDS011;41279;43.546;16.426;2023-03-17T04:12:17;7.13;;;4.70;;
55409;SDS011;41279;43.546;16.426;2023-03-17T04:14:42;5.25;;;4.72;;
55409;SDS011;41279;43.546;16.426;2023-03-17T04:17:11;5.13;;;4.63;;
55409;SDS011;41279;43.546;16.426;2023-03-17T04:19:38;5.38;;;4.88;;
55409;SDS011;41279;43.546;16.426;2023-03-17T04:22:05;5.13;;;4.63;;
55409;SDS011;41279;43.546;16.426;2023-03-17T04:24:33;6.43;;;4.70;;
55409;SDS011;41279;43.546;16.426;2023-03-17T04:26:59;6.50;;;4.72;;
55409;SDS011;41279;43.546;16.426;2023-03-17T04:29:25;5.43;;;4.93;;
55409;SDS011;41279;43.546;16.426;2023-03-17T04:31:51;5.35;;;4.55;;
55409;SDS011;41279;43.546;16.426;2023-03-17T04:34:17;5.43;;;4.88;;
55409;SDS011;41279;43.546;16.426;2023-03-17T04:36:43;5.07;;;4.57;;
55409;SDS011;41279;43.546;16.426;2023-03-17T04:39:10;5.60;;;4.85;;
55409;SDS011;41279;43.546;16.426;2023-03-17T04:41:36;5.28;;;4.78;;
55409;SDS011;41279;43.546;16.426;2023-03-17T04:44:02;6.68;;;4.88;;
55409;SDS011;41279;43.546;16.426;2023-03-17T04:46:27;5.65;;;4.85;;
55409;SDS011;41279;43.546;16.426;2023-03-17T04:48:53;4.97;;;4.50;;
55409;SDS011;41279;43.546;16.426;2023-03-17T04:51:18;6.35;;;4.80;;
55409;SDS011;41279;43.546;16.426;2023-03-17T04:53:44;5.28;;;4.68;;
55409;SDS011;41279;43.546;16.426;2023-03-17T04:56:10;6.93;;;4.50;;
55409;SDS011;41279;43.546;16.426;2023-03-17T04:58:36;9.35;;;4.60;;
55409;SDS011;41279;43.546;16.426;2023-03-17T05:01:01;5.47;;;4.70;;
55409;SDS011;41279;43.546;16.426;2023-03-17T05:03:27;5.00;;;4.47;;
55409;SDS011;41279;43.546;16.426;2023-03-17T05:05:55;5.82;;;4.50;;
55409;SDS011;41279;43.546;16.426;2023-03-17T05:08:21;6.50;;;4.80;;
55409;SDS011;41279;43.546;16.426;2023-03-17T05:10:47;6.32;;;5.00;;
55409;SDS011;41279;43.546;16.426;2023-03-17T05:13:13;5.57;;;4.72;;
55409;SDS011;41279;43.546;16.426;2023-03-17T05:15:43;4.85;;;4.30;;
55409;SDS011;41279;43.546;16.426;2023-03-17T05:18:11;5.05;;;4.50;;
55409;SDS011;41279;43.546;16.426;2023-03-17T05:20:36;5.35;;;4.38;;
55409;SDS011;41279;43.546;16.426;2023-03-17T05:23:01;4.80;;;4.35;;
55409;SDS011;41279;43.546;16.426;2023-03-17T05:25:27;5.47;;;4.15;;
55409;SDS011;41279;43.546;16.426;2023-03-17T05:27:52;7.03;;;4.63;;
55409;SDS011;41279;43.546;16.426;2023-03-17T05:30:18;5.43;;;4.65;;
55409;SDS011;41279;43.546;16.426;2023-03-17T05:32:43;5.53;;;4.93;;
55409;SDS011;41279;43.546;16.426;2023-03-17T05:35:09;5.60;;;5.00;;
55409;SDS011;41279;43.546;16.426;2023-03-17T05:37:35;7.13;;;5.40;;
55409;SDS011;41279;43.546;16.426;2023-03-17T05:40:00;5.25;;;4.70;;
55409;SDS011;41279;43.546;16.426;2023-03-17T05:42:26;5.18;;;4.68;;
55409;SDS011;41279;43.546;16.426;2023-03-17T05:44:52;6.32;;;4.60;;
55409;SDS011;41279;43.546;16.426;2023-03-17T05:47:18;5.20;;;4.50;;
55409;SDS011;41279;43.546;16.426;2023-03-17T05:49:44;5.63;;;4.80;;
55409;SDS011;41279;43.546;16.426;2023-03-17T05:52:10;6.03;;;4.70;;
55409;SDS011;41279;43.546;16.426;2023-03-17T05:54:35;5.97;;;4.97;;
55409;SDS011;41279;43.546;16.426;2023-03-17T05:57:01;5.32;;;4.82;;
55409;SDS011;41279;43.546;16.426;2023-03-17T05:59:28;5.60;;;5.00;;
55409;SDS011;41279;43.546;16.426;2023-03-17T06:01:53;5.93;;;5.05;;
55409;SDS011;41279;43.546;16.426;2023-03-17T06:04:19;5.30;;;4.80;;
55409;SDS011;41279;43.546;16.426;2023-03-17T06:06:45;5.15;;;4.65;;
55409;SDS011;41279;43.546;16.426;2023-03-17T06:09:10;5.18;;;4.68;;
55409;SDS011;41279;43.546;16.426;2023-03-17T06:11:36;6.07;;;4.75;;
55409;SDS011;41279;43.546;16.426;2023-03-17T06:14:02;6.82;;;4.80;;
55409;SDS011;41279;43.546;16.426;2023-03-17T06:16:27;4.90;;;4.35;;
55409;SDS011;41279;43.546;16.426;2023-03-17T06:18:57;7.10;;;4.78;;
55409;SDS011;41279;43.546;16.426;2023-03-17T06:21:22;5.47;;;4.53;;
55409;SDS011;41279;43.546;16.426;2023-03-17T06:23:48;6.38;;;4.90;;
55409;SDS011;41279;43.546;16.426;2023-03-17T06:26:14;9.55;;;5.38;;
55409;SDS011;41279;43.546;16.426;2023-03-17T06:28:39;5.30;;;4.75;;
55409;SDS011;41279;43.546;16.426;2023-03-17T06:31:05;5.47;;;4.97;;
55409;SDS011;41279;43.546;16.426;2023-03-17T06:33:32;5.15;;;4.63;;
55409;SDS011;41279;43.546;16.426;2023-03-17T06:35:58;5.68;;;5.07;;
55409;SDS011;41279;43.546;16.426;2023-03-17T06:38:24;6.35;;;4.85;;
55409;SDS011;41279;43.546;16.426;2023-03-17T06:40:50;5.15;;;4.53;;
55409;SDS011;41279;43.546;16.426;2023-03-17T06:43:15;5.28;;;4.43;;
55409;SDS011;41279;43.546;16.426;2023-03-17T06:45:43;5.40;;;4.47;;
55409;SDS011;41279;43.546;16.426;2023-03-17T06:48:09;5.82;;;4.78;;
55409;SDS011;41279;43.546;16.426;2023-03-17T06:50:35;5.30;;;4.78;;
55409;SDS011;41279;43.546;16.426;2023-03-17T06:53:01;5.53;;;4.50;;
55409;SDS011;41279;43.546;16.426;2023-03-17T06:55:33;5.15;;;4.50;;
55409;SDS011;41279;43.546;16.426;2023-03-17T06:57:58;5.88;;;4.70;;
55409;SDS011;41279;43.546;16.426;2023-03-17T07:00:24;4.70;;;4.20;;
55409;SDS011;41279;43.546;16.426;2023-03-17T07:02:51;5.47;;;4.28;;
55409;SDS011;41279;43.546;16.426;2023-03-17T07:05:17;5.07;;;4.40;;
55409;SDS011;41279;43.546;16.426;2023-03-17T07:07:42;4.78;;;4.30;;
55409;SDS011;41279;43.546;16.426;2023-03-17T07:10:08;5.10;;;4.53;;
55409;SDS011;41279;43.546;16.426;2023-03-17T07:12:37;4.90;;;4.40;;
55409;SDS011;41279;43.546;16.426;2023-03-17T07:15:03;5.88;;;4.95;;
55409;SDS011;41279;43.546;16.426;2023-03-17T07:17:29;4.90;;;4.40;;
55409;SDS011;41279;43.546;16.426;2023-03-17T07:19:56;4.85;;;4.10;;
55409;SDS011;41279;43.546;16.426;2023-03-17T07:22:21;5.00;;;3.80;;
55409;SDS011;41279;43.546;16.426;2023-03-17T07:24:46;5.38;;;3.97;;
55409;SDS011;41279;43.546;16.426;2023-03-17T07:27:13;5.50;;;4.22;;
55409;SDS011;41279;43.546;16.426;2023-03-17T07:29:40;5.63;;;4.32;;
55409;SDS011;41279;43.546;16.426;2023-03-17T07:32:06;4.60;;;4.20;;
55409;SDS011;41279;43.546;16.426;2023-03-17T07:34:33;6.47;;;5.13;;
55409;SDS011;41279;43.546;16.426;2023-03-17T07:36:59;5.10;;;4.20;;
55409;SDS011;41279;43.546;16.426;2023-03-17T07:39:25;4.68;;;4.20;;
55409;SDS011;41279;43.546;16.426;2023-03-17T07:41:51;5.00;;;4.50;;
55409;SDS011;41279;43.546;16.426;2023-03-17T07:44:19;5.32;;;4.82;;
55409;SDS011;41279;43.546;16.426;2023-03-17T07:46:46;5.43;;;4.93;;
55409;SDS011;41279;43.546;16.426;2023-03-17T07:49:12;5.50;;;5.00;;
55409;SDS011;41279;43.546;16.426;2023-03-17T07:51:38;4.97;;;4.47;;
55409;SDS011;41279;43.546;16.426;2023-03-17T07:54:06;5.53;;;4.32;;
55409;SDS011;41279;43.546;16.426;2023-03-17T07:56:36;4.90;;;4.40;;
55409;SDS011;41279;43.546;16.426;2023-03-17T07:59:02;5.15;;;4.60;;
55409;SDS011;41279;43.546;16.426;2023-03-17T08:01:28;5.13;;;4.55;;
55409;SDS011;41279;43.546;16.426;2023-03-17T08:03:54;4.53;;;4.13;;
55409;SDS011;41279;43.546;16.426;2023-03-17T08:06:20;6.30;;;4.53;;
55409;SDS011;41279;43.546;16.426;2023-03-17T08:08:48;5.82;;;4.18;;
55409;SDS011;41279;43.546;16.426;2023-03-17T08:11:14;6.05;;;4.40;;
55409;SDS011;41279;43.546;16.426;2023-03-17T08:13:41;6.47;;;4.57;;
55409;SDS011;41279;43.546;16.426;2023-03-17T08:16:07;6.20;;;4.78;;
55409;SDS011;41279;43.546;16.426;2023-03-17T08:18:32;4.65;;;4.10;;
55409;SDS011;41279;43.546;16.426;2023-03-17T08:20:58;5.57;;;4.60;;
55409;SDS011;41279;43.546;16.426;2023-03-17T08:23:24;4.95;;;4.45;;
55409;SDS011;41279;43.546;16.426;2023-03-17T08:25:49;7.28;;;4.47;;
55409;SDS011;41279;43.546;16.426;2023-03-17T08:28:20;4.97;;;4.40;;
55409;SDS011;41279;43.546;16.426;2023-03-17T08:30:46;5.03;;;4.38;;
55409;SDS011;41279;43.546;16.426;2023-03-17T08:33:13;5.30;;;4.25;;
55409;SDS011;41279;43.546;16.426;2023-03-17T08:35:41;5.63;;;4.45;;
55409;SDS011;41279;43.546;16.426;2023-03-17T08:38:08;6.07;;;4.70;;
55409;SDS011;41279;43.546;16.426;2023-03-17T08:40:33;4.50;;;4.10;;
55409;SDS011;41279;43.546;16.426;2023-03-17T08:43:00;5.32;;;4.32;;
55409;SDS011;41279;43.546;16.426;2023-03-17T08:45:26;4.53;;;4.13;;
55409;SDS011;41279;43.546;16.426;2023-03-17T08:47:52;5.13;;;4.38;;
55409;SDS011;41279;43.546;16.426;2023-03-17T08:50:19;4.38;;;3.92;;
55409;SDS011;41279;43.546;16.426;2023-03-17T08:52:46;4.88;;;3.83;;
55409;SDS011;41279;43.546;16.426;2023-03-17T08:55:13;4.93;;;4.25;;
55409;SDS011;41279;43.546;16.426;2023-03-17T08:57:39;5.82;;;4.30;;
55409;SDS011;41279;43.546;16.426;2023-03-17T09:00:07;5.13;;;4.40;;
55409;SDS011;41279;43.546;16.426;2023-03-17T09:02:38;4.80;;;4.10;;
55409;SDS011;41279;43.546;16.426;2023-03-17T09:05:07;5.22;;;3.97;;
55409;SDS011;41279;43.546;16.426;2023-03-17T09:07:34;4.90;;;4.40;;
55409;SDS011;41279;43.546;16.426;2023-03-17T09:10:00;4.97;;;4.30;;
55409;SDS011;41279;43.546;16.426;2023-03-17T09:12:29;4.60;;;4.03;;
55409;SDS011;41279;43.546;16.426;2023-03-17T09:14:54;4.70;;;4.20;;
55409;SDS011;41279;43.546;16.426;2023-03-17T09:17:20;4.78;;;4.00;;
55409;SDS011;41279;43.546;16.426;2023-03-17T09:19:46;4.72;;;4.15;;
55409;SDS011;41279;43.546;16.426;2023-03-17T09:22:13;6.20;;;4.20;;
55409;SDS011;41279;43.546;16.426;2023-03-17T09:24:40;4.70;;;4.20;;
55409;SDS011;41279;43.546;16.426;2023-03-17T09:27:06;4.55;;;4.15;;
55409;SDS011;41279;43.546;16.426;2023-03-17T09:29:31;4.32;;;3.80;;
55409;SDS011;41279;43.546;16.426;2023-03-17T09:31:58;5.60;;;3.90;;
55409;SDS011;41279;43.546;16.426;2023-03-17T09:34:25;5.43;;;3.92;;
55409;SDS011;41279;43.546;16.426;2023-03-17T09:36:52;4.55;;;3.80;;
55409;SDS011;41279;43.546;16.426;2023-03-17T09:39:25;4.70;;;4.20;;
55409;SDS011;41279;43.546;16.426;2023-03-17T09:44:29;4.43;;;3.85;;
55409;SDS011;41279;43.546;16.426;2023-03-17T09:49:57;4.60;;;4.10;;
55409;SDS011;41279;43.546;16.426;2023-03-17T09:52:27;5.15;;;4.18;;
55409;SDS011;41279;43.546;16.426;2023-03-17T09:54:55;11.05;;;7.10;;
55409;SDS011;41279;43.546;16.426;2023-03-17T10:00:00;4.63;;;3.92;;
55409;SDS011;41279;43.546;16.426;2023-03-17T10:02:31;4.80;;;4.00;;
55409;SDS011;41279;43.546;16.426;2023-03-17T10:05:06;6.05;;;4.97;;
55409;SDS011;41279;43.546;16.426;2023-03-17T10:15:51;4.75;;;4.10;;
55409;SDS011;41279;43.546;16.426;2023-03-17T10:18:25;4.95;;;4.00;;
55409;SDS011;41279;43.546;16.426;2023-03-17T10:20:59;5.07;;;4.00;;
55409;SDS011;41279;43.546;16.426;2023-03-17T10:23:29;5.05;;;3.70;;
55409;SDS011;41279;43.546;16.426;2023-03-17T10:25:59;6.30;;;4.43;;
55409;SDS011;41279;43.546;16.426;2023-03-17T10:28:30;5.20;;;4.70;;
55409;SDS011;41279;43.546;16.426;2023-03-17T10:31:45;4.82;;;4.10;;
55409;SDS011;41279;43.546;16.426;2023-03-17T10:33:53;4.82;;;4.28;;
55409;SDS011;41279;43.546;16.426;2023-03-17T10:36:37;6.72;;;4.30;;
55409;SDS011;41279;43.546;16.426;2023-03-17T10:39:04;5.65;;;3.83;;
55409;SDS011;41279;43.546;16.426;2023-03-17T10:41:32;6.03;;;3.90;;
55409;SDS011;41279;43.546;16.426;2023-03-17T10:44:00;4.57;;;3.90;;
55409;SDS011;41279;43.546;16.426;2023-03-17T10:46:25;6.13;;;4.32;;
55409;SDS011;41279;43.546;16.426;2023-03-17T10:48:57;4.75;;;4.00;;
55409;SDS011;41279;43.546;16.426;2023-03-17T10:51:30;5.18;;;4.25;;
55409;SDS011;41279;43.546;16.426;2023-03-17T10:54:08;5.15;;;4.38;;
55409;SDS011;41279;43.546;16.426;2023-03-17T10:56:35;6.55;;;4.53;;
55409;SDS011;41279;43.546;16.426;2023-03-17T10:59:07;5.85;;;4.90;;
55409;SDS011;41279;43.546;16.426;2023-03-17T11:01:51;4.38;;;3.85;;
55409;SDS011;41279;43.546;16.426;2023-03-17T11:04:28;4.78;;;4.25;;
55409;SDS011;41279;43.546;16.426;2023-03-17T11:07:03;5.10;;;3.92;;
55409;SDS011;41279;43.546;16.426;2023-03-17T11:09:35;5.10;;;4.10;;
55409;SDS011;41279;43.546;16.426;2023-03-17T11:14:29;6.20;;;4.40;;
55409;SDS011;41279;43.546;16.426;2023-03-17T11:16:59;4.50;;;4.10;;
55409;SDS011;41279;43.546;16.426;2023-03-17T11:22:16;4.28;;;3.78;;
55409;SDS011;41279;43.546;16.426;2023-03-17T11:25:08;5.18;;;4.13;;
55409;SDS011;41279;43.546;16.426;2023-03-17T11:27:58;6.43;;;4.50;;
55409;SDS011;41279;43.546;16.426;2023-03-17T11:30:42;4.90;;;4.40;;
55409;SDS011;41279;43.546;16.426;2023-03-17T11:33:32;5.25;;;4.18;;
55409;SDS011;41279;43.546;16.426;2023-03-17T11:39:27;5.28;;;3.90;;
55409;SDS011;41279;43.546;16.426;2023-03-17T11:47:12;4.78;;;3.70;;
55409;SDS011;41279;43.546;16.426;2023-03-17T11:52:51;4.78;;;4.28;;
55409;SDS011;41279;43.546;16.426;2023-03-17T11:55:22;4.78;;;4.28;;
55409;SDS011;41279;43.546;16.426;2023-03-17T12:00:30;4.78;;;4.22;;
55409;SDS011;41279;43.546;16.426;2023-03-17T12:03:00;4.50;;;4.10;;
55409;SDS011;41279;43.546;16.426;2023-03-17T12:05:52;4.85;;;4.20;;
55409;SDS011;41279;43.546;16.426;2023-03-17T12:10:54;4.95;;;4.32;;
55409;SDS011;41279;43.546;16.426;2023-03-17T12:16:16;5.75;;;4.60;;
55409;SDS011;41279;43.546;16.426;2023-03-17T12:26:49;5.10;;;4.60;;
55409;SDS011;41279;43.546;16.426;2023-03-17T12:35:03;5.32;;;4.70;;
55409;SDS011;41279;43.546;16.426;2023-03-17T12:37:47;5.63;;;4.55;;
55409;SDS011;41279;43.546;16.426;2023-03-17T12:40:14;5.28;;;4.60;;
55409;SDS011;41279;43.546;16.426;2023-03-17T12:42:51;5.63;;;4.72;;
55409;SDS011;41279;43.546;16.426;2023-03-17T12:45:41;5.18;;;3.90;;
55409;SDS011;41279;43.546;16.426;2023-03-17T12:48:32;5.35;;;4.10;;
55409;SDS011;41279;43.546;16.426;2023-03-17T12:51:36;5.75;;;5.00;;
55409;SDS011;41279;43.546;16.426;2023-03-17T12:54:28;5.32;;;4.80;;
55409;SDS011;41279;43.546;16.426;2023-03-17T12:57:03;5.07;;;4.57;;
55409;SDS011;41279;43.546;16.426;2023-03-17T12:59:36;5.20;;;4.70;;
55409;SDS011;41279;43.546;16.426;2023-03-17T13:02:30;5.07;;;4.57;;
55409;SDS011;41279;43.546;16.426;2023-03-17T13:05:00;6.18;;;4.00;;
55409;SDS011;41279;43.546;16.426;2023-03-17T13:07:32;6.95;;;4.00;;
55409;SDS011;41279;43.546;16.426;2023-03-17T13:10:12;4.43;;;3.80;;
55409;SDS011;41279;43.546;16.426;2023-03-17T13:13:05;4.30;;;3.75;;
55409;SDS011;41279;43.546;16.426;2023-03-17T13:20:50;4.32;;;3.65;;
55409;SDS011;41279;43.546;16.426;2023-03-17T13:26:01;4.38;;;3.67;;
55409;SDS011;41279;43.546;16.426;2023-03-17T13:33:50;4.28;;;3.88;;
55409;SDS011;41279;43.546;16.426;2023-03-17T13:39:20;4.20;;;3.80;;
55409;SDS011;41279;43.546;16.426;2023-03-17T13:42:08;5.78;;;3.70;;
55409;SDS011;41279;43.546;16.426;2023-03-17T13:49:47;6.28;;;4.60;;
55409;SDS011;41279;43.546;16.426;2023-03-17T13:57:41;6.43;;;3.92;;
55409;SDS011;41279;43.546;16.426;2023-03-17T14:02:39;4.68;;;3.40;;
55409;SDS011;41279;43.546;16.426;2023-03-17T14:05:06;4.63;;;3.65;;
55409;SDS011;41279;43.546;16.426;2023-03-17T14:07:45;6.22;;;4.10;;
55409;SDS011;41279;43.546;16.426;2023-03-17T14:10:18;4.28;;;3.63;;
55409;SDS011;41279;43.546;16.426;2023-03-17T14:12:48;4.40;;;3.72;;
55409;SDS011;41279;43.546;16.426;2023-03-17T14:15:26;4.82;;;3.58;;
55409;SDS011;41279;43.546;16.426;2023-03-17T14:17:58;3.83;;;3.40;;
55409;SDS011;41279;43.546;16.426;2023-03-17T14:20:26;5.50;;;3.50;;
55409;SDS011;41279;43.546;16.426;2023-03-17T14:22:57;4.32;;;3.60;;
55409;SDS011;41279;43.546;16.426;2023-03-17T14:25:25;4.70;;;3.70;;
55409;SDS011;41279;43.546;16.426;2023-03-17T14:27:57;4.45;;;3.40;;
55409;SDS011;41279;43.546;16.426;2023-03-17T14:30:26;4.93;;;3.60;;
55409;SDS011;41279;43.546;16.426;2023-03-17T14:35:41;4.30;;;3.90;;
55409;SDS011;41279;43.546;16.426;2023-03-17T14:38:20;4.68;;;3.70;;
55409;SDS011;41279;43.546;16.426;2023-03-17T14:41:36;4.70;;;3.58;;
55409;SDS011;41279;43.546;16.426;2023-03-17T14:43:42;3.95;;;3.50;;
55409;SDS011;41279;43.546;16.426;2023-03-17T14:46:15;4.15;;;3.50;;
55409;SDS011;41279;43.546;16.426;2023-03-17T14:48:47;5.70;;;3.50;;
55409;SDS011;41279;43.546;16.426;2023-03-17T14:53:46;4.65;;;3.60;;
55409;SDS011;41279;43.546;16.426;2023-03-17T14:56:12;5.47;;;4.22;;
55409;SDS011;41279;43.546;16.426;2023-03-17T14:58:40;4.20;;;3.60;;
55409;SDS011;41279;43.546;16.426;2023-03-17T15:01:44;4.38;;;3.80;;
55409;SDS011;41279;43.546;16.426;2023-03-17T15:04:10;3.90;;;3.50;;
55409;SDS011;41279;43.546;16.426;2023-03-17T15:06:56;3.97;;;3.50;;
55409;SDS011;41279;43.546;16.426;2023-03-17T15:09:25;4.00;;;3.60;;
55409;SDS011;41279;43.546;16.426;2023-03-17T15:11:54;4.38;;;3.88;;
55409;SDS011;41279;43.546;16.426;2023-03-17T15:14:28;5.32;;;3.67;;
55409;SDS011;41279;43.546;16.426;2023-03-17T15:16:57;4.28;;;3.88;;
55409;SDS011;41279;43.546;16.426;2023-03-17T15:19:27;5.20;;;3.80;;
55409;SDS011;41279;43.546;16.426;2023-03-17T15:22:04;6.18;;;4.22;;
55409;SDS011;41279;43.546;16.426;2023-03-17T15:27:40;4.82;;;3.70;;
55409;SDS011;41279;43.546;16.426;2023-03-17T15:30:06;4.20;;;3.80;;
55409;SDS011;41279;43.546;16.426;2023-03-17T15:32:39;4.20;;;3.78;;
55409;SDS011;41279;43.546;16.426;2023-03-17T15:35:05;6.32;;;4.45;;
55409;SDS011;41279;43.546;16.426;2023-03-17T15:37:32;4.40;;;3.70;;
55409;SDS011;41279;43.546;16.426;2023-03-17T15:39:59;4.57;;;3.80;;
55409;SDS011;41279;43.546;16.426;2023-03-17T15:42:27;4.75;;;3.60;;
55409;SDS011;41279;43.546;16.426;2023-03-17T15:44:54;5.82;;;4.00;;
55409;SDS011;41279;43.546;16.426;2023-03-17T15:47:20;5.18;;;4.25;;
55409;SDS011;41279;43.546;16.426;2023-03-17T15:49:49;4.63;;;4.10;;
55409;SDS011;41279;43.546;16.426;2023-03-17T15:52:19;5.25;;;4.05;;
55409;SDS011;41279;43.546;16.426;2023-03-17T15:54:49;6.03;;;3.90;;
55409;SDS011;41279;43.546;16.426;2023-03-17T15:57:15;4.05;;;3.65;;
55409;SDS011;41279;43.546;16.426;2023-03-17T15:59:41;4.50;;;3.92;;
55409;SDS011;41279;43.546;16.426;2023-03-17T16:04:54;5.97;;;4.70;;
55409;SDS011;41279;43.546;16.426;2023-03-17T16:07:21;4.32;;;3.83;;
55409;SDS011;41279;43.546;16.426;2023-03-17T16:09:47;4.65;;;4.00;;
55409;SDS011;41279;43.546;16.426;2023-03-17T16:12:13;5.88;;;3.80;;
55409;SDS011;41279;43.546;16.426;2023-03-17T16:14:39;4.32;;;3.67;;
55409;SDS011;41279;43.546;16.426;2023-03-17T16:17:08;4.55;;;4.07;;
55409;SDS011;41279;43.546;16.426;2023-03-17T16:19:42;4.35;;;3.67;;
55409;SDS011;41279;43.546;16.426;2023-03-17T16:28:15;4.72;;;3.67;;
55409;SDS011;41279;43.546;16.426;2023-03-17T16:30:43;5.45;;;4.10;;
55409;SDS011;41279;43.546;16.426;2023-03-17T16:33:17;4.32;;;3.85;;
55409;SDS011;41279;43.546;16.426;2023-03-17T16:35:45;4.85;;;3.40;;